createdAt,value
2019-05-06T00:00:34.076Z,101859.06
2019-05-06T00:03:05.159Z,101862.31
2019-05-06T00:05:35.573Z,101867.17
2019-05-06T00:08:05.853Z,101866.25
2019-05-06T00:10:36.933Z,101868.95
2019-05-06T00:13:07.391Z,101857.53
2019-05-06T00:15:37.814Z,101857.84
2019-05-06T00:18:08.190Z,101865.30
2019-05-06T00:20:38.932Z,101861.84
2019-05-06T00:23:18.161Z,101861.02
2019-05-06T00:26:05.859Z,101861.56
2019-05-06T00:28:44.499Z,101862.54
2019-05-06T00:31:16.694Z,101864.00
2019-05-06T00:33:47.394Z,101862.55
2019-05-06T00:36:17.728Z,101855.38
2019-05-06T00:38:54.055Z,101861.70
2019-05-06T00:41:28.972Z,101856.94
2019-05-06T00:43:59.603Z,101859.53
2019-05-06T00:46:30.058Z,101858.48
2019-05-06T00:49:00.628Z,101854.16
2019-05-06T00:51:30.925Z,101852.62
2019-05-06T00:54:07.089Z,101847.77
2019-05-06T00:56:37.659Z,101855.59
2019-05-06T00:59:08.667Z,101853.28
2019-05-06T01:01:38.968Z,101847.42
2019-05-06T01:04:09.722Z,101848.09
2019-05-06T01:06:40.028Z,101851.66
2019-05-06T01:09:16.393Z,101854.91
2019-05-06T01:11:48.411Z,101856.23
2019-05-06T01:14:27.346Z,101856.91
2019-05-06T01:16:57.642Z,101867.17
2019-05-06T01:19:28.211Z,101870.77
2019-05-06T01:21:58.836Z,101866.31
2019-05-06T01:24:29.412Z,101865.80
2019-05-06T01:27:00.696Z,101862.28
2019-05-06T01:29:32.167Z,101859.23
2019-05-06T01:32:03.703Z,101865.11
2019-05-06T01:34:37.324Z,101864.13
2019-05-06T01:37:14.261Z,101863.90
2019-05-06T01:40:04.495Z,101869.62
2019-05-06T01:42:44.750Z,101865.02
2019-05-06T01:45:15.000Z,101856.66
2019-05-06T01:47:45.289Z,101857.31
2019-05-06T01:50:15.681Z,101860.28
2019-05-06T01:52:47.976Z,101855.97
2019-05-06T01:55:18.250Z,101858.88
2019-05-06T01:57:48.776Z,101858.14
2019-05-06T02:00:19.532Z,101856.16
2019-05-06T02:02:49.843Z,101858.88
2019-05-06T02:05:20.430Z,101862.45
2019-05-06T02:07:50.815Z,101869.58
2019-05-06T02:10:21.090Z,101866.25
2019-05-06T02:12:51.394Z,101862.91
2019-05-06T02:15:23.897Z,101872.80
2019-05-06T02:17:55.120Z,101863.98
2019-05-06T02:20:25.776Z,101869.80
2019-05-06T02:23:17.286Z,101865.66
2019-05-06T02:25:50.552Z,101863.14
2019-05-06T02:28:23.606Z,101859.72
2019-05-06T02:31:05.499Z,101859.48
2019-05-06T02:33:55.834Z,101852.44
2019-05-06T02:36:58.086Z,101856.78
2019-05-06T02:39:29.123Z,101849.22
2019-05-06T02:41:59.400Z,101849.94
2019-05-06T02:44:33.636Z,101861.56
2019-05-06T02:47:23.310Z,101858.25
2019-05-06T02:49:57.192Z,101865.09
2019-05-06T02:52:27.646Z,101865.36
2019-05-06T02:54:58.217Z,101864.30
2019-05-06T02:57:28.497Z,101862.66
2019-05-06T02:59:59.192Z,101855.48
2019-05-06T03:02:41.935Z,101853.28
2019-05-06T03:05:04.238Z,101856.56
2019-05-06T03:07:37.799Z,101858.25
2019-05-06T03:10:12.778Z,101856.41
2019-05-06T03:12:43.021Z,101857.33
2019-05-06T03:15:16.614Z,101865.77
2019-05-06T03:17:46.787Z,101865.73
2019-05-06T03:20:32.850Z,101856.23
2019-05-06T03:23:06.538Z,101856.23
2019-05-06T03:25:39.191Z,101859.52
2019-05-06T03:28:09.706Z,101860.78
2019-05-06T03:30:45.337Z,101858.66
2019-05-06T03:33:37.259Z,101857.56
2019-05-06T03:35:57.729Z,101860.23
2019-05-06T03:38:15.953Z,101859.00
2019-05-06T03:40:46.547Z,101845.73
2019-05-06T03:43:16.870Z,101845.73
2019-05-06T03:46:09.390Z,101848.23
2019-05-06T03:48:44.277Z,101850.00
2019-05-06T03:51:13.840Z,101849.92
2019-05-06T03:53:45.693Z,101845.90
2019-05-06T03:56:20.059Z,101848.85
2019-05-06T03:58:53.612Z,101844.94
2019-05-06T04:01:24.354Z,101845.30
2019-05-06T04:03:57.129Z,101842.92
2019-05-06T04:06:27.245Z,101841.26
2019-05-06T04:08:58.167Z,101843.58
2019-05-06T04:11:28.702Z,101848.66
2019-05-06T04:14:02.845Z,101842.29
2019-05-06T04:16:44.385Z,101849.05
2019-05-06T04:19:28.616Z,101849.02
2019-05-06T04:22:12.918Z,101847.45
2019-05-06T04:24:53.855Z,101847.33
2019-05-06T04:27:33.484Z,101851.20
2019-05-06T04:30:05.707Z,101847.39
2019-05-06T04:32:36.087Z,101848.00
2019-05-06T04:35:07.740Z,101841.72
2019-05-06T04:37:38.023Z,101849.01
2019-05-06T04:40:08.610Z,101841.26
2019-05-06T04:42:44.364Z,101839.47
2019-05-06T04:45:17.477Z,101841.98
2019-05-06T04:47:46.570Z,101846.94
2019-05-06T04:50:16.919Z,101852.83
2019-05-06T04:53:04.537Z,101846.91
2019-05-06T04:55:35.643Z,101844.89
2019-05-06T04:58:06.439Z,101848.73
2019-05-06T05:00:38.653Z,101855.43
2019-05-06T05:03:10.423Z,101855.56
2019-05-06T05:05:44.892Z,101857.25
2019-05-06T05:08:15.524Z,101855.51
2019-05-06T05:11:04.794Z,101857.88
2019-05-06T05:13:53.307Z,101860.13
2019-05-06T05:16:42.887Z,101853.77
2019-05-06T05:19:13.694Z,101853.17
2019-05-06T05:21:44.182Z,101854.77
2019-05-06T05:24:14.938Z,101851.01
2019-05-06T05:26:47.160Z,101857.30
2019-05-06T05:29:17.738Z,101847.33
2019-05-06T05:31:48.116Z,101847.33
2019-05-06T05:34:18.730Z,101852.36
2019-05-06T05:36:48.986Z,101856.27
2019-05-06T05:39:19.576Z,101853.55
2019-05-06T05:41:52.130Z,101853.64
2019-05-06T05:44:29.118Z,101849.72
2019-05-06T05:46:59.963Z,101847.84
2019-05-06T05:49:55.465Z,101848.61
2019-05-06T05:52:26.032Z,101848.57
2019-05-06T05:54:56.796Z,101847.23
2019-05-06T05:57:28.220Z,101841.22
2019-05-06T05:59:58.914Z,101843.52
2019-05-06T06:02:33.258Z,101850.63
2019-05-06T06:05:03.550Z,101856.48
2019-05-06T06:07:35.319Z,101856.56
2019-05-06T06:10:35.085Z,101868.34
2019-05-06T06:13:06.172Z,101853.72
2019-05-06T06:15:58.572Z,101853.72
2019-05-06T06:18:43.298Z,101869.13
2019-05-06T06:21:32.476Z,101867.17
2019-05-06T06:24:17.822Z,101866.29
2019-05-06T06:26:49.458Z,101872.45
2019-05-06T06:29:20.064Z,101862.88
2019-05-06T06:32:16.213Z,101862.26
2019-05-06T06:35:14.568Z,101858.45
2019-05-06T06:37:55.784Z,101852.88
2019-05-06T06:40:28.246Z,101858.76
2019-05-06T06:43:06.114Z,101857.17
2019-05-06T06:45:36.838Z,101860.54
2019-05-06T06:48:07.258Z,101857.70
2019-05-06T06:50:37.831Z,101853.17
2019-05-06T06:53:08.262Z,101853.27
2019-05-06T06:55:42.562Z,101855.64
2019-05-06T06:58:32.399Z,101854.55
2019-05-06T07:01:33.030Z,101854.83
2019-05-06T07:04:12.996Z,101851.51
2019-05-06T07:06:45.912Z,101853.42
2019-05-06T07:09:16.226Z,101854.52
2019-05-06T07:11:46.799Z,101855.20
2019-05-06T07:14:22.619Z,101854.92
2019-05-06T07:16:54.198Z,101848.05
2019-05-06T07:19:33.022Z,101848.98
2019-05-06T07:22:06.656Z,101844.05
2019-05-06T07:24:35.548Z,101849.75
2019-05-06T07:27:12.528Z,101845.31
2019-05-06T07:29:48.065Z,101844.73
2019-05-06T07:32:16.210Z,101834.03
2019-05-06T07:34:46.533Z,101830.73
2019-05-06T07:37:18.085Z,101830.13
2019-05-06T07:39:48.484Z,101817.54
2019-05-06T07:42:27.761Z,101811.59
2019-05-06T07:45:12.497Z,101800.09
2019-05-06T07:47:55.478Z,101785.38
2019-05-06T07:50:25.860Z,101780.86
2019-05-06T07:53:09.495Z,101771.77
2019-05-06T07:55:42.240Z,101776.70
2019-05-06T07:58:13.802Z,101777.20
2019-05-06T08:00:44.557Z,101774.28
2019-05-06T08:03:15.230Z,101757.80
2019-05-06T08:05:56.872Z,101770.80
2019-05-06T08:08:18.138Z,101762.11
2019-05-06T08:10:48.650Z,101767.09
2019-05-06T08:13:19.229Z,101753.25
2019-05-06T08:15:49.841Z,101751.17
2019-05-06T08:18:21.936Z,101749.40
2019-05-06T08:20:52.714Z,101746.55
2019-05-06T08:23:32.665Z,101744.23
2019-05-06T08:26:12.142Z,101741.04
2019-05-06T08:28:41.056Z,101759.59
2019-05-06T08:31:08.438Z,101759.59
2019-05-06T08:33:39.040Z,101771.17
2019-05-06T08:36:14.910Z,101763.55
2019-05-06T08:38:57.761Z,101752.55
2019-05-06T08:41:28.566Z,101738.53
2019-05-06T08:44:02.385Z,101731.45
2019-05-06T08:46:32.969Z,101726.23
2019-05-06T08:49:04.795Z,101741.52
2019-05-06T08:51:53.071Z,101767.33
2019-05-06T08:54:32.348Z,101764.31
2019-05-06T08:57:02.781Z,101751.86
2019-05-06T08:59:33.389Z,101766.28
2019-05-06T09:02:04.699Z,101773.84
2019-05-06T09:04:35.092Z,101784.05
2019-05-06T09:07:05.696Z,101786.11
2019-05-06T09:09:36.041Z,101785.79
2019-05-06T09:12:06.668Z,101782.90
2019-05-06T09:14:37.364Z,101779.42
2019-05-06T09:17:08.224Z,101774.16
2019-05-06T09:19:38.610Z,101776.64
2019-05-06T09:22:09.298Z,101747.71
2019-05-06T09:24:39.976Z,101739.57
2019-05-06T09:27:18.941Z,101736.98
2019-05-06T09:29:52.169Z,101740.23
2019-05-06T09:32:35.635Z,101748.61
2019-05-06T09:35:03.608Z,101748.61
2019-05-06T09:37:35.173Z,101750.05
2019-05-06T09:40:06.198Z,101750.52
2019-05-06T09:42:36.889Z,101749.79
2019-05-06T09:45:07.584Z,101762.89
2019-05-06T09:48:12.814Z,101761.33
2019-05-06T09:50:46.683Z,101769.80
2019-05-06T09:53:25.503Z,101774.27
2019-05-06T09:56:13.600Z,101780.70
2019-05-06T09:58:44.754Z,101784.84
2019-05-06T10:01:16.015Z,101787.83
2019-05-06T10:03:46.709Z,101787.91
2019-05-06T10:06:17.174Z,101787.47
2019-05-06T10:08:48.096Z,101788.52
2019-05-06T10:11:18.489Z,101790.84
2019-05-06T10:13:48.994Z,101796.43
2019-05-06T10:16:21.242Z,101792.13
2019-05-06T10:18:54.277Z,101790.84
2019-05-06T10:21:26.213Z,101783.41
2019-05-06T10:23:56.479Z,101780.12
2019-05-06T10:26:29.810Z,101774.62
2019-05-06T10:29:22.219Z,101772.28
2019-05-06T10:32:05.494Z,101763.69
2019-05-06T10:34:37.048Z,101762.12
2019-05-06T10:37:33.549Z,101756.86
2019-05-06T10:40:15.556Z,101756.86
2019-05-06T10:42:52.301Z,101759.92
2019-05-06T10:45:33.919Z,101771.53
2019-05-06T10:48:04.514Z,101763.59
2019-05-06T10:50:39.500Z,101764.45
2019-05-06T10:53:18.773Z,101775.97
2019-05-06T10:55:53.661Z,101780.92
2019-05-06T10:58:24.094Z,101775.80
2019-05-06T11:01:09.007Z,101782.45
2019-05-06T11:03:39.343Z,101777.09
2019-05-06T11:06:13.138Z,101777.55
2019-05-06T11:08:43.093Z,101768.05
2019-05-06T11:11:20.113Z,101767.80
2019-05-06T11:13:46.687Z,101759.16
2019-05-06T11:16:19.310Z,101754.05
2019-05-06T11:18:49.981Z,101747.11
2019-05-06T11:21:22.910Z,101748.15
2019-05-06T11:23:54.034Z,101742.94
2019-05-06T11:26:25.791Z,101744.88
2019-05-06T11:29:00.015Z,101744.44
2019-05-06T11:31:43.250Z,101746.17
2019-05-06T11:34:28.253Z,101746.42
2019-05-06T11:37:16.430Z,101745.28
2019-05-06T11:39:46.746Z,101746.27
2019-05-06T11:42:27.563Z,101743.89
2019-05-06T11:44:52.900Z,101742.44
2019-05-06T11:47:23.480Z,101743.06
2019-05-06T11:49:56.599Z,101747.33
2019-05-06T11:52:26.969Z,101750.15
2019-05-06T11:54:59.477Z,101741.43
2019-05-06T11:57:29.945Z,101732.49
2019-05-06T12:00:02.960Z,101729.78
2019-05-06T12:02:33.070Z,101723.16
2019-05-06T12:05:04.584Z,101732.96
2019-05-06T12:07:35.078Z,101732.96
2019-05-06T12:10:06.868Z,101732.07
2019-05-06T12:12:37.213Z,101727.53
2019-05-06T12:15:09.167Z,101725.89
2019-05-06T12:17:41.986Z,101739.16
2019-05-06T12:20:14.352Z,101732.30
2019-05-06T12:22:45.246Z,101735.92
2019-05-06T12:25:17.460Z,101725.08
2019-05-06T12:27:48.075Z,101725.20
2019-05-06T12:30:23.172Z,101729.19
2019-05-06T12:33:13.044Z,101729.55
2019-05-06T12:35:47.333Z,101728.56
2019-05-06T12:38:30.319Z,101723.95
2019-05-06T12:40:59.979Z,101717.84
2019-05-06T12:43:40.042Z,101724.39
2019-05-06T12:46:23.941Z,101722.70
2019-05-06T12:48:54.535Z,101720.62
2019-05-06T12:51:24.850Z,101715.13
2019-05-06T12:53:55.170Z,101722.97
2019-05-06T12:56:25.950Z,101719.96
2019-05-06T12:58:56.561Z,101723.03
2019-05-06T13:01:26.901Z,101724.86
2019-05-06T13:03:57.222Z,101720.34
2019-05-06T13:06:28.857Z,101726.24
2019-05-06T13:09:04.076Z,101718.63
2019-05-06T13:11:33.345Z,101718.63
2019-05-06T13:14:04.412Z,101720.55
2019-05-06T13:16:36.106Z,101716.67
2019-05-06T13:19:07.436Z,101709.53
2019-05-06T13:21:38.179Z,101710.94
2019-05-06T13:24:09.564Z,101701.91
2019-05-06T13:26:40.410Z,101699.66
2019-05-06T13:29:16.802Z,101696.40
2019-05-06T13:31:47.643Z,101696.33
2019-05-06T13:34:20.532Z,101696.98
2019-05-06T13:36:53.443Z,101697.23
2019-05-06T13:39:24.047Z,101693.02
2019-05-06T13:41:54.873Z,101694.63
2019-05-06T13:44:26.270Z,101690.09
2019-05-06T13:46:56.558Z,101691.80
2019-05-06T13:49:49.184Z,101690.80
2019-05-06T13:52:23.116Z,101690.80
2019-05-06T13:54:53.721Z,101693.45
2019-05-06T13:57:25.315Z,101695.36
2019-05-06T13:59:55.942Z,101695.91
2019-05-06T14:02:35.861Z,101693.70
2019-05-06T14:05:06.795Z,101695.44
2019-05-06T14:07:37.231Z,101691.52
2019-05-06T14:10:07.964Z,101684.28
2019-05-06T14:12:38.880Z,101686.30
2019-05-06T14:15:09.343Z,101685.75
2019-05-06T14:17:42.180Z,101692.43
2019-05-06T14:20:12.636Z,101688.89
2019-05-06T14:22:43.878Z,101687.77
2019-05-06T14:25:36.858Z,101682.69
2019-05-06T14:28:21.761Z,101681.63
2019-05-06T14:30:58.915Z,101679.29
2019-05-06T14:33:29.514Z,101675.41
2019-05-06T14:36:00.199Z,101678.23
2019-05-06T14:38:32.268Z,101679.00
2019-05-06T14:41:26.786Z,101680.78
2019-05-06T14:43:55.114Z,101683.40
2019-05-06T14:46:27.344Z,101687.53
2019-05-06T14:48:57.676Z,101690.27
2019-05-06T14:51:28.199Z,101691.09
2019-05-06T14:53:58.586Z,101690.66
2019-05-06T14:56:44.564Z,101681.56
2019-05-06T14:59:14.903Z,101687.73
2019-05-06T15:01:45.834Z,101695.70
2019-05-06T15:04:16.454Z,101694.92
2019-05-06T15:06:47.177Z,101705.03
2019-05-06T15:09:17.786Z,101705.30
2019-05-06T15:11:48.204Z,101711.90
2019-05-06T15:14:18.699Z,101717.13
2019-05-06T15:16:49.047Z,101711.70
2019-05-06T15:19:19.385Z,101713.39
2019-05-06T15:21:52.876Z,101709.33
2019-05-06T15:24:24.421Z,101714.73
2019-05-06T15:26:56.767Z,101714.66
2019-05-06T15:29:27.081Z,101716.08
2019-05-06T15:32:13.030Z,101721.73
2019-05-06T15:34:57.844Z,101713.53
2019-05-06T15:37:36.867Z,101713.53
2019-05-06T15:40:09.367Z,101714.72
2019-05-06T15:42:39.631Z,101716.42
2019-05-06T15:45:12.618Z,101721.58
2019-05-06T15:47:43.052Z,101719.42
2019-05-06T15:50:13.713Z,101719.20
2019-05-06T15:52:43.997Z,101713.62
2019-05-06T15:55:15.063Z,101710.69
2019-05-06T15:57:45.667Z,101698.59
2019-05-06T16:00:18.367Z,101698.59
2019-05-06T16:02:48.963Z,101697.25
2019-05-06T16:05:25.143Z,101697.25
2019-05-06T16:07:52.873Z,101697.25
2019-05-06T16:10:26.051Z,101693.80
2019-05-06T16:12:58.824Z,101686.77
2019-05-06T16:15:29.311Z,101685.30
2019-05-06T16:18:02.428Z,101680.95
2019-05-06T16:20:33.235Z,101682.36
2019-05-06T16:23:16.769Z,101674.96
2019-05-06T16:25:48.526Z,101672.00
2019-05-06T16:28:18.925Z,101679.52
2019-05-06T16:30:49.749Z,101684.08
2019-05-06T16:33:22.068Z,101678.58
2019-05-06T16:35:53.935Z,101675.56
2019-05-06T16:38:24.311Z,101676.66
2019-05-06T16:41:09.472Z,101670.42
2019-05-06T16:43:26.979Z,101667.77
2019-05-06T16:45:57.548Z,101659.95
2019-05-06T16:48:28.135Z,101661.38
2019-05-06T16:50:58.820Z,101662.73
2019-05-06T16:53:32.372Z,101655.81
2019-05-06T16:56:13.683Z,101662.05
2019-05-06T16:58:52.509Z,101659.06
2019-05-06T17:01:23.463Z,101665.37
2019-05-06T17:04:03.446Z,101661.19
2019-05-06T17:06:36.246Z,101663.66
2019-05-06T17:09:19.947Z,101658.34
2019-05-06T17:11:42.618Z,101654.70
2019-05-06T17:14:13.059Z,101657.84
2019-05-06T17:16:43.354Z,101654.19
2019-05-06T17:19:13.754Z,101659.06
2019-05-06T17:21:44.069Z,101661.17
2019-05-06T17:24:14.433Z,101663.73
2019-05-06T17:26:46.829Z,101663.18
2019-05-06T17:29:42.817Z,101659.50
2019-05-06T17:32:22.158Z,101659.22
2019-05-06T17:34:57.179Z,101658.92
2019-05-06T17:37:43.356Z,101656.66
2019-05-06T17:40:15.807Z,101659.70
2019-05-06T17:42:46.138Z,101660.83
2019-05-06T17:45:36.091Z,101662.90
2019-05-06T17:48:20.321Z,101661.02
2019-05-06T17:51:10.287Z,101666.12
2019-05-06T17:53:42.733Z,101653.83
2019-05-06T17:56:13.432Z,101652.67
2019-05-06T17:58:43.876Z,101654.53
2019-05-06T18:01:15.888Z,101656.20
2019-05-06T18:03:46.284Z,101652.77
2019-05-06T18:06:17.940Z,101651.09
2019-05-06T18:08:49.383Z,101654.11
2019-05-06T18:11:22.269Z,101653.31
2019-05-06T18:13:52.433Z,101649.58
2019-05-06T18:16:24.216Z,101655.23
2019-05-06T18:18:54.770Z,101656.52
2019-05-06T18:21:25.127Z,101654.59
2019-05-06T18:23:55.471Z,101659.55
2019-05-06T18:26:25.808Z,101662.45
2019-05-06T18:28:58.346Z,101657.97
2019-05-06T18:31:28.312Z,101658.14
2019-05-06T18:33:58.626Z,101668.94
2019-05-06T18:36:28.948Z,101672.95
2019-05-06T18:38:59.518Z,101673.98
2019-05-06T18:41:29.821Z,101669.98
2019-05-06T18:44:00.569Z,101670.49
2019-05-06T18:46:32.359Z,101670.49
2019-05-06T18:49:03.409Z,101672.89
2019-05-06T18:51:33.694Z,101668.41
2019-05-06T18:54:04.221Z,101669.95
2019-05-06T18:56:34.507Z,101676.23
2019-05-06T18:59:06.273Z,101673.23
2019-05-06T19:01:36.797Z,101679.02
2019-05-06T19:04:26.323Z,101673.30
2019-05-06T19:07:09.232Z,101678.05
2019-05-06T19:09:52.668Z,101682.44
2019-05-06T19:12:31.745Z,101686.95
2019-05-06T19:14:55.285Z,101686.95
2019-05-06T19:17:25.942Z,101691.97
2019-05-06T19:19:56.275Z,101701.67
2019-05-06T19:22:27.827Z,101702.78
2019-05-06T19:24:58.056Z,101708.13
2019-05-06T19:27:28.582Z,101708.56
2019-05-06T19:29:58.878Z,101708.09
2019-05-06T19:32:34.960Z,101706.52
2019-05-06T19:35:03.015Z,101708.91
2019-05-06T19:37:33.576Z,101706.80
2019-05-06T19:40:04.022Z,101706.80
2019-05-06T19:42:46.322Z,101711.12
2019-05-06T19:45:07.275Z,101715.19
2019-05-06T19:47:37.738Z,101710.80
2019-05-06T19:50:08.817Z,101717.52
2019-05-06T19:52:42.198Z,101716.75
2019-05-06T19:55:12.486Z,101716.75
2019-05-06T19:57:43.169Z,101713.09
2019-05-06T20:00:14.171Z,101714.43
2019-05-06T20:02:44.600Z,101715.48
2019-05-06T20:05:33.945Z,101722.19
2019-05-06T20:08:32.628Z,101719.14
2019-05-06T20:11:22.818Z,101720.36
2019-05-06T20:13:53.162Z,101720.26
2019-05-06T20:16:23.463Z,101723.62
2019-05-06T20:18:53.816Z,101725.76
2019-05-06T20:21:24.318Z,101724.41
2019-05-06T20:23:54.656Z,101725.69
2019-05-06T20:26:25.522Z,101724.91
2019-05-06T20:28:55.899Z,101720.52
2019-05-06T20:31:28.535Z,101714.03
2019-05-06T20:33:59.255Z,101720.02
2019-05-06T20:36:29.964Z,101715.64
2019-05-06T20:39:02.530Z,101716.42
2019-05-06T20:41:34.872Z,101722.81
2019-05-06T20:44:05.382Z,101720.91
2019-05-06T20:46:37.477Z,101719.13
2019-05-06T20:49:07.861Z,101724.24
2019-05-06T20:51:39.081Z,101722.97
2019-05-06T20:54:09.373Z,101722.73
2019-05-06T20:56:42.011Z,101721.75
2019-05-06T20:59:12.285Z,101725.59
2019-05-06T21:01:42.681Z,101721.20
2019-05-06T21:06:56.372Z,101727.58
2019-05-06T21:09:26.717Z,101730.06
2019-05-06T21:11:57.852Z,101728.79
2019-05-06T21:14:28.245Z,101729.97
2019-05-06T21:17:02.866Z,101725.67
2019-05-06T21:19:33.354Z,101730.78
2019-05-06T21:22:03.588Z,101724.79
2019-05-06T21:24:36.069Z,101726.46
2019-05-06T21:27:06.096Z,101725.19
2019-05-06T21:29:36.544Z,101723.84
2019-05-06T21:32:06.845Z,101721.19
2019-05-06T21:34:37.419Z,101717.13
2019-05-06T21:37:07.942Z,101716.97
2019-05-06T21:39:38.609Z,101716.86
2019-05-06T21:42:12.213Z,101722.46
2019-05-06T21:44:42.974Z,101721.97
2019-05-06T21:47:13.299Z,101714.24
2019-05-06T21:49:43.903Z,101724.84
2019-05-06T21:52:14.273Z,101722.23
2019-05-06T21:54:44.670Z,101725.66
2019-05-06T21:57:14.991Z,101721.73
2019-05-06T21:59:45.465Z,101719.58
2019-05-06T22:02:17.559Z,101722.06
2019-05-06T22:04:48.230Z,101721.67
2019-05-06T22:07:18.712Z,101720.39
2019-05-06T22:09:49.053Z,101723.23
2019-05-06T22:12:19.736Z,101722.52
2019-05-06T22:14:50.229Z,101719.50
2019-05-06T22:17:22.519Z,101714.40
2019-05-06T22:19:53.519Z,101712.07
2019-05-06T22:22:26.259Z,101712.22
2019-05-06T22:24:58.134Z,101708.05
2019-05-06T22:27:29.551Z,101709.77
2019-05-06T22:29:59.874Z,101705.38
2019-05-06T22:32:33.083Z,101706.59
2019-05-06T22:35:04.699Z,101703.87
2019-05-06T22:37:36.232Z,101704.97
2019-05-06T22:40:06.810Z,101707.84
2019-05-06T22:42:37.101Z,101710.22
2019-05-06T22:45:07.852Z,101706.78
2019-05-06T22:47:38.388Z,101702.47
2019-05-06T22:50:08.889Z,101700.17
2019-05-06T22:52:39.148Z,101700.45
2019-05-06T22:55:09.577Z,101702.05
2019-05-06T22:57:42.225Z,101698.72
2019-05-06T23:00:18.488Z,101697.73
2019-05-06T23:02:56.580Z,101703.00
2019-05-06T23:05:26.944Z,101704.28
2019-05-06T23:07:57.241Z,101705.88
2019-05-06T23:10:27.526Z,101710.02
2019-05-06T23:12:58.091Z,101712.97
2019-05-06T23:15:34.015Z,101711.69
2019-05-06T23:18:02.433Z,101714.31
2019-05-06T23:20:33.905Z,101716.08
2019-05-06T23:23:05.769Z,101714.80
2019-05-06T23:25:36.092Z,101715.13
2019-05-06T23:28:06.467Z,101710.80
2019-05-06T23:30:37.044Z,101708.75
2019-05-06T23:33:08.564Z,101713.67
2019-05-06T23:35:38.838Z,101712.62
2019-05-06T23:38:45.536Z,101713.33
2019-05-06T23:41:52.873Z,101714.92
2019-05-06T23:44:58.447Z,101715.70
2019-05-06T23:48:07.445Z,101711.70
2019-05-06T23:51:13.215Z,101710.42
2019-05-06T23:54:19.112Z,101718.08
2019-05-06T23:56:48.743Z,101712.02
2019-05-06T23:59:19.557Z,101716.62
